sensor_id;sensor_type;location;lat;lon;timestamp;temperature;humidity
21770;DHT22;11046;49.558;8.674;2023-12-04T00:00:29;-1.70;98.10
21770;DHT22;11046;49.558;8.674;2023-12-04T00:03:30;-1.70;98.10
21770;DHT22;11046;49.558;8.674;2023-12-04T00:06:30;-1.60;98.00
21770;DHT22;11046;49.558;8.674;2023-12-04T00:09:31;-1.50;97.90
21770;DHT22;11046;49.558;8.674;2023-12-04T00:12:31;-1.40;97.80
21770;DHT22;11046;49.558;8.674;2023-12-04T00:15:32;-1.50;97.70
21770;DHT22;11046;49.558;8.674;2023-12-04T00:18:33;-1.50;97.70
21770;DHT22;11046;49.558;8.674;2023-12-04T00:21:33;-1.50;97.70
21770;DHT22;11046;49.558;8.674;2023-12-04T00:24:34;-1.50;97.80
21770;DHT22;11046;49.558;8.674;2023-12-04T00:27:34;-1.60;97.70
21770;DHT22;11046;49.558;8.674;2023-12-04T00:30:35;-1.60;97.80
21770;DHT22;11046;49.558;8.674;2023-12-04T00:33:35;-1.60;97.70
21770;DHT22;11046;49.558;8.674;2023-12-04T00:36:36;-1.60;97.80
21770;DHT22;11046;49.558;8.674;2023-12-04T00:39:37;-1.60;97.70
21770;DHT22;11046;49.558;8.674;2023-12-04T00:42:37;-1.60;98.00
21770;DHT22;11046;49.558;8.674;2023-12-04T00:45:38;-1.60;97.60
21770;DHT22;11046;49.558;8.674;2023-12-04T00:48:38;-1.60;97.60
21770;DHT22;11046;49.558;8.674;2023-12-04T00:51:39;-1.60;97.60
21770;DHT22;11046;49.558;8.674;2023-12-04T00:54:40;-1.60;97.60
21770;DHT22;11046;49.558;8.674;2023-12-04T00:57:43;-1.50;97.50
21770;DHT22;11046;49.558;8.674;2023-12-04T01:00:44;-1.50;97.40
21770;DHT22;11046;49.558;8.674;2023-12-04T01:03:44;-1.50;97.40
21770;DHT22;11046;49.558;8.674;2023-12-04T01:06:45;-1.60;97.40
21770;DHT22;11046;49.558;8.674;2023-12-04T01:09:45;-1.50;97.30
21770;DHT22;11046;49.558;8.674;2023-12-04T01:12:46;-1.50;97.20
21770;DHT22;11046;49.558;8.674;2023-12-04T01:15:46;-1.60;97.10
21770;DHT22;11046;49.558;8.674;2023-12-04T01:18:48;-1.60;97.20
21770;DHT22;11046;49.558;8.674;2023-12-04T01:21:49;-1.70;97.20
21770;DHT22;11046;49.558;8.674;2023-12-04T01:24:50;-1.80;97.30
21770;DHT22;11046;49.558;8.674;2023-12-04T01:27:50;-1.80;97.40
21770;DHT22;11046;49.558;8.674;2023-12-04T01:30:51;-1.80;97.40
21770;DHT22;11046;49.558;8.674;2023-12-04T01:33:51;-1.80;97.30
21770;DHT22;11046;49.558;8.674;2023-12-04T01:36:52;-1.90;97.40
21770;DHT22;11046;49.558;8.674;2023-12-04T01:39:52;-1.90;97.40
21770;DHT22;11046;49.558;8.674;2023-12-04T01:42:53;-1.80;97.50
21770;DHT22;11046;49.558;8.674;2023-12-04T01:45:54;-1.80;97.50
21770;DHT22;11046;49.558;8.674;2023-12-04T01:48:55;-1.80;97.50
21770;DHT22;11046;49.558;8.674;2023-12-04T01:51:56;-1.80;97.50
21770;DHT22;11046;49.558;8.674;2023-12-04T01:54:57;-1.80;97.40
21770;DHT22;11046;49.558;8.674;2023-12-04T01:57:58;-1.80;97.40
21770;DHT22;11046;49.558;8.674;2023-12-04T02:01:00;-1.70;97.40
21770;DHT22;11046;49.558;8.674;2023-12-04T02:04:01;-1.70;97.40
21770;DHT22;11046;49.558;8.674;2023-12-04T02:07:03;-1.70;97.30
21770;DHT22;11046;49.558;8.674;2023-12-04T02:10:04;-1.70;97.30
21770;DHT22;11046;49.558;8.674;2023-12-04T02:13:05;-1.70;97.30
21770;DHT22;11046;49.558;8.674;2023-12-04T02:16:09;-1.60;97.20
21770;DHT22;11046;49.558;8.674;2023-12-04T02:19:12;-1.60;97.20
21770;DHT22;11046;49.558;8.674;2023-12-04T02:22:13;-1.60;97.20
21770;DHT22;11046;49.558;8.674;2023-12-04T02:25:14;-1.60;97.10
21770;DHT22;11046;49.558;8.674;2023-12-04T02:28:16;-1.50;97.10
21770;DHT22;11046;49.558;8.674;2023-12-04T02:31:18;-1.50;97.10
21770;DHT22;11046;49.558;8.674;2023-12-04T02:34:20;-1.50;97.00
21770;DHT22;11046;49.558;8.674;2023-12-04T02:37:22;-1.50;97.00
21770;DHT22;11046;49.558;8.674;2023-12-04T02:40:23;-1.50;97.00
21770;DHT22;11046;49.558;8.674;2023-12-04T02:43:24;-1.50;97.00
21770;DHT22;11046;49.558;8.674;2023-12-04T02:46:25;-1.60;97.00
21770;DHT22;11046;49.558;8.674;2023-12-04T02:49:26;-1.60;97.00
21770;DHT22;11046;49.558;8.674;2023-12-04T02:52:26;-1.60;97.00
21770;DHT22;11046;49.558;8.674;2023-12-04T02:55:28;-1.60;97.00
21770;DHT22;11046;49.558;8.674;2023-12-04T02:58:28;-1.50;97.00
21770;DHT22;11046;49.558;8.674;2023-12-04T03:01:29;-1.50;97.00
21770;DHT22;11046;49.558;8.674;2023-12-04T03:04:30;-1.50;97.00
21770;DHT22;11046;49.558;8.674;2023-12-04T03:07:31;-1.50;96.90
21770;DHT22;11046;49.558;8.674;2023-12-04T03:10:32;-1.40;96.90
21770;DHT22;11046;49.558;8.674;2023-12-04T03:13:34;-1.40;96.90
21770;DHT22;11046;49.558;8.674;2023-12-04T03:16:34;-1.30;96.90
21770;DHT22;11046;49.558;8.674;2023-12-04T03:19:35;-1.20;96.80
21770;DHT22;11046;49.558;8.674;2023-12-04T03:22:38;-1.30;96.80
21770;DHT22;11046;49.558;8.674;2023-12-04T03:25:39;-1.30;96.80
21770;DHT22;11046;49.558;8.674;2023-12-04T03:28:40;-1.40;96.90
21770;DHT22;11046;49.558;8.674;2023-12-04T03:31:40;-1.40;96.90
21770;DHT22;11046;49.558;8.674;2023-12-04T03:34:41;-1.30;96.90
21770;DHT22;11046;49.558;8.674;2023-12-04T03:37:41;-1.20;96.80
21770;DHT22;11046;49.558;8.674;2023-12-04T03:40:42;-1.20;96.80
21770;DHT22;11046;49.558;8.674;2023-12-04T03:43:43;-1.20;96.60
21770;DHT22;11046;49.558;8.674;2023-12-04T03:46:43;-1.10;96.60
21770;DHT22;11046;49.558;8.674;2023-12-04T03:49:44;-1.20;96.60
21770;DHT22;11046;49.558;8.674;2023-12-04T03:52:44;-1.20;96.60
21770;DHT22;11046;49.558;8.674;2023-12-04T03:55:45;-1.20;96.60
21770;DHT22;11046;49.558;8.674;2023-12-04T03:58:46;-1.10;96.70
21770;DHT22;11046;49.558;8.674;2023-12-04T04:01:46;-1.00;96.70
21770;DHT22;11046;49.558;8.674;2023-12-04T04:04:47;-1.00;96.50
21770;DHT22;11046;49.558;8.674;2023-12-04T04:07:47;-1.00;96.50
21770;DHT22;11046;49.558;8.674;2023-12-04T04:10:48;-1.00;96.40
21770;DHT22;11046;49.558;8.674;2023-12-04T04:13:49;-0.90;96.30
21770;DHT22;11046;49.558;8.674;2023-12-04T04:16:49;-1.00;96.30
21770;DHT22;11046;49.558;8.674;2023-12-04T04:19:50;-1.10;96.30
21770;DHT22;11046;49.558;8.674;2023-12-04T04:22:51;-1.00;96.30
21770;DHT22;11046;49.558;8.674;2023-12-04T04:25:52;-1.10;96.30
21770;DHT22;11046;49.558;8.674;2023-12-04T04:28:52;-1.10;96.30
21770;DHT22;11046;49.558;8.674;2023-12-04T04:31:53;-1.10;96.30
21770;DHT22;11046;49.558;8.674;2023-12-04T04:34:54;-1.10;96.40
21770;DHT22;11046;49.558;8.674;2023-12-04T04:37:54;-1.10;96.40
21770;DHT22;11046;49.558;8.674;2023-12-04T04:40:55;-1.10;96.30
21770;DHT22;11046;49.558;8.674;2023-12-04T04:43:55;-1.00;96.30
21770;DHT22;11046;49.558;8.674;2023-12-04T04:46:56;-1.00;96.20
21770;DHT22;11046;49.558;8.674;2023-12-04T04:49:56;-1.00;96.20
21770;DHT22;11046;49.558;8.674;2023-12-04T04:52:57;-0.90;96.10
21770;DHT22;11046;49.558;8.674;2023-12-04T04:55:58;-0.80;96.00
21770;DHT22;11046;49.558;8.674;2023-12-04T04:58:58;-0.80;96.00
21770;DHT22;11046;49.558;8.674;2023-12-04T05:01:59;-0.80;96.00
21770;DHT22;11046;49.558;8.674;2023-12-04T05:05:02;-0.70;95.90
21770;DHT22;11046;49.558;8.674;2023-12-04T05:08:03;-0.70;95.90
21770;DHT22;11046;49.558;8.674;2023-12-04T05:11:04;-0.70;95.80
21770;DHT22;11046;49.558;8.674;2023-12-04T05:14:04;-0.80;95.80
21770;DHT22;11046;49.558;8.674;2023-12-04T05:17:05;-0.90;95.80
21770;DHT22;11046;49.558;8.674;2023-12-04T05:20:06;-0.90;95.80
21770;DHT22;11046;49.558;8.674;2023-12-04T05:23:08;-1.00;95.80
21770;DHT22;11046;49.558;8.674;2023-12-04T05:26:08;-1.20;95.90
21770;DHT22;11046;49.558;8.674;2023-12-04T05:29:09;-1.30;96.10
21770;DHT22;11046;49.558;8.674;2023-12-04T05:32:09;-1.40;96.10
21770;DHT22;11046;49.558;8.674;2023-12-04T05:35:10;-1.50;96.10
21770;DHT22;11046;49.558;8.674;2023-12-04T05:38:10;-1.50;96.20
21770;DHT22;11046;49.558;8.674;2023-12-04T05:41:11;-1.50;96.20
21770;DHT22;11046;49.558;8.674;2023-12-04T05:44:11;-1.50;96.10
21770;DHT22;11046;49.558;8.674;2023-12-04T05:47:12;-1.50;96.10
21770;DHT22;11046;49.558;8.674;2023-12-04T05:50:13;-1.60;96.20
21770;DHT22;11046;49.558;8.674;2023-12-04T05:53:13;-1.70;96.20
21770;DHT22;11046;49.558;8.674;2023-12-04T05:56:14;-1.80;96.40
21770;DHT22;11046;49.558;8.674;2023-12-04T05:59:14;-1.80;96.50
21770;DHT22;11046;49.558;8.674;2023-12-04T06:02:15;-1.80;96.50
21770;DHT22;11046;49.558;8.674;2023-12-04T06:05:15;-1.80;96.50
21770;DHT22;11046;49.558;8.674;2023-12-04T06:08:16;-1.90;96.50
21770;DHT22;11046;49.558;8.674;2023-12-04T06:11:17;-2.00;96.90
21770;DHT22;11046;49.558;8.674;2023-12-04T06:14:17;-2.00;96.60
21770;DHT22;11046;49.558;8.674;2023-12-04T06:17:18;-2.10;96.40
21770;DHT22;11046;49.558;8.674;2023-12-04T06:20:18;-2.30;96.70
21770;DHT22;11046;49.558;8.674;2023-12-04T06:23:19;-2.40;96.90
21770;DHT22;11046;49.558;8.674;2023-12-04T06:26:20;-2.40;96.90
21770;DHT22;11046;49.558;8.674;2023-12-04T06:29:21;-2.50;96.90
21770;DHT22;11046;49.558;8.674;2023-12-04T06:32:22;-2.50;96.80
21770;DHT22;11046;49.558;8.674;2023-12-04T06:35:23;-2.40;96.90
21770;DHT22;11046;49.558;8.674;2023-12-04T06:38:24;-2.50;96.90
21770;DHT22;11046;49.558;8.674;2023-12-04T06:41:26;-2.60;96.90
21770;DHT22;11046;49.558;8.674;2023-12-04T06:44:26;-2.60;97.00
21770;DHT22;11046;49.558;8.674;2023-12-04T06:47:27;-2.60;97.10
21770;DHT22;11046;49.558;8.674;2023-12-04T06:50:28;-2.70;97.20
21770;DHT22;11046;49.558;8.674;2023-12-04T06:53:29;-2.80;97.40
21770;DHT22;11046;49.558;8.674;2023-12-04T06:56:29;-2.70;97.50
21770;DHT22;11046;49.558;8.674;2023-12-04T06:59:30;-2.60;97.70
21770;DHT22;11046;49.558;8.674;2023-12-04T07:02:31;-2.40;97.70
21770;DHT22;11046;49.558;8.674;2023-12-04T07:05:31;-2.10;97.60
21770;DHT22;11046;49.558;8.674;2023-12-04T07:08:32;-1.90;97.20
21770;DHT22;11046;49.558;8.674;2023-12-04T07:11:33;-1.70;96.90
21770;DHT22;11046;49.558;8.674;2023-12-04T07:14:33;-1.60;96.60
21770;DHT22;11046;49.558;8.674;2023-12-04T07:17:36;-1.50;96.30
21770;DHT22;11046;49.558;8.674;2023-12-04T07:20:37;-1.40;96.30
21770;DHT22;11046;49.558;8.674;2023-12-04T07:23:38;-1.20;96.00
21770;DHT22;11046;49.558;8.674;2023-12-04T07:26:38;-1.10;95.90
21770;DHT22;11046;49.558;8.674;2023-12-04T07:29:39;-1.00;96.00
21770;DHT22;11046;49.558;8.674;2023-12-04T07:32:40;-1.00;96.00
21770;DHT22;11046;49.558;8.674;2023-12-04T07:35:40;-0.70;96.00
21770;DHT22;11046;49.558;8.674;2023-12-04T07:38:41;-0.70;95.90
21770;DHT22;11046;49.558;8.674;2023-12-04T07:41:41;-0.60;95.80
21770;DHT22;11046;49.558;8.674;2023-12-04T07:44:42;-0.50;95.80
21770;DHT22;11046;49.558;8.674;2023-12-04T07:47:43;-0.50;95.70
21770;DHT22;11046;49.558;8.674;2023-12-04T07:50:43;-0.50;95.70
21770;DHT22;11046;49.558;8.674;2023-12-04T07:53:44;-0.50;95.80
21770;DHT22;11046;49.558;8.674;2023-12-04T07:56:44;-0.40;95.80
21770;DHT22;11046;49.558;8.674;2023-12-04T07:59:45;-0.40;95.90
21770;DHT22;11046;49.558;8.674;2023-12-04T08:02:46;-0.20;95.90
21770;DHT22;11046;49.558;8.674;2023-12-04T08:05:46;-0.40;95.80
21770;DHT22;11046;49.558;8.674;2023-12-04T08:08:47;-0.40;96.00
21770;DHT22;11046;49.558;8.674;2023-12-04T08:11:48;-0.50;96.10
21770;DHT22;11046;49.558;8.674;2023-12-04T08:14:48;-0.60;96.10
21770;DHT22;11046;49.558;8.674;2023-12-04T08:17:49;-0.70;96.20
21770;DHT22;11046;49.558;8.674;2023-12-04T08:20:50;-0.80;96.30
21770;DHT22;11046;49.558;8.674;2023-12-04T08:23:51;-1.00;96.40
21770;DHT22;11046;49.558;8.674;2023-12-04T08:26:51;-1.10;96.60
21770;DHT22;11046;49.558;8.674;2023-12-04T08:29:52;-1.10;96.80
21770;DHT22;11046;49.558;8.674;2023-12-04T08:32:53;-1.00;96.90
21770;DHT22;11046;49.558;8.674;2023-12-04T08:35:54;-0.90;96.90
21770;DHT22;11046;49.558;8.674;2023-12-04T08:38:54;-0.90;96.80
21770;DHT22;11046;49.558;8.674;2023-12-04T08:41:55;-0.70;96.80
21770;DHT22;11046;49.558;8.674;2023-12-04T08:44:56;-0.70;96.80
21770;DHT22;11046;49.558;8.674;2023-12-04T08:47:56;-0.60;96.90
21770;DHT22;11046;49.558;8.674;2023-12-04T08:50:57;-0.60;97.00
21770;DHT22;11046;49.558;8.674;2023-12-04T08:53:58;-0.60;97.10
21770;DHT22;11046;49.558;8.674;2023-12-04T08:56:59;-0.50;97.10
21770;DHT22;11046;49.558;8.674;2023-12-04T09:00:00;-0.50;97.10
21770;DHT22;11046;49.558;8.674;2023-12-04T09:03:02;-0.40;97.10
21770;DHT22;11046;49.558;8.674;2023-12-04T09:06:02;-0.40;97.20
21770;DHT22;11046;49.558;8.674;2023-12-04T09:09:03;-0.30;97.60
21770;DHT22;11046;49.558;8.674;2023-12-04T09:12:04;-0.30;97.20
21770;DHT22;11046;49.558;8.674;2023-12-04T09:15:05;-0.40;97.30
21770;DHT22;11046;49.558;8.674;2023-12-04T09:18:06;-0.30;97.40
21770;DHT22;11046;49.558;8.674;2023-12-04T09:21:06;-0.30;97.50
21770;DHT22;11046;49.558;8.674;2023-12-04T09:24:08;-0.20;97.50
21770;DHT22;11046;49.558;8.674;2023-12-04T09:27:09;-0.20;97.50
21770;DHT22;11046;49.558;8.674;2023-12-04T09:30:09;-0.10;97.40
21770;DHT22;11046;49.558;8.674;2023-12-04T09:33:10;-0.10;97.40
21770;DHT22;11046;49.558;8.674;2023-12-04T09:36:11;-0.10;97.40
21770;DHT22;11046;49.558;8.674;2023-12-04T09:39:11;-0.10;97.40
21770;DHT22;11046;49.558;8.674;2023-12-04T09:42:14;-0.20;97.40
21770;DHT22;11046;49.558;8.674;2023-12-04T09:45:15;-0.40;97.40
21770;DHT22;11046;49.558;8.674;2023-12-04T09:48:16;-0.50;97.40
21770;DHT22;11046;49.558;8.674;2023-12-04T09:51:18;-0.50;97.50
21770;DHT22;11046;49.558;8.674;2023-12-04T09:54:19;-0.60;97.60
21770;DHT22;11046;49.558;8.674;2023-12-04T09:57:23;-0.50;97.50
21770;DHT22;11046;49.558;8.674;2023-12-04T10:00:23;-0.40;97.50
21770;DHT22;11046;49.558;8.674;2023-12-04T10:03:24;-0.40;97.40
21770;DHT22;11046;49.558;8.674;2023-12-04T10:06:28;-0.30;97.30
21770;DHT22;11046;49.558;8.674;2023-12-04T10:09:29;-0.30;97.30
21770;DHT22;11046;49.558;8.674;2023-12-04T10:12:30;-0.30;97.30
21770;DHT22;11046;49.558;8.674;2023-12-04T10:15:31;-0.30;97.30
21770;DHT22;11046;49.558;8.674;2023-12-04T10:18:32;-0.30;97.40
21770;DHT22;11046;49.558;8.674;2023-12-04T10:21:33;-0.30;97.40
21770;DHT22;11046;49.558;8.674;2023-12-04T10:24:35;-0.20;97.40
21770;DHT22;11046;49.558;8.674;2023-12-04T10:27:37;-0.10;97.40
21770;DHT22;11046;49.558;8.674;2023-12-04T10:30:38;0.00;97.40
21770;DHT22;11046;49.558;8.674;2023-12-04T10:33:40;-0.10;97.40
21770;DHT22;11046;49.558;8.674;2023-12-04T10:36:41;-0.10;97.60
21770;DHT22;11046;49.558;8.674;2023-12-04T10:39:46;0.00;97.60
21770;DHT22;11046;49.558;8.674;2023-12-04T10:42:48;0.20;97.40
21770;DHT22;11046;49.558;8.674;2023-12-04T10:45:49;0.20;97.30
21770;DHT22;11046;49.558;8.674;2023-12-04T10:48:50;0.20;97.20
21770;DHT22;11046;49.558;8.674;2023-12-04T10:51:51;0.20;97.20
21770;DHT22;11046;49.558;8.674;2023-12-04T10:54:52;0.20;97.30
21770;DHT22;11046;49.558;8.674;2023-12-04T10:57:53;0.30;97.30
21770;DHT22;11046;49.558;8.674;2023-12-04T11:00:55;0.30;97.30
21770;DHT22;11046;49.558;8.674;2023-12-04T11:03:59;0.30;97.30
21770;DHT22;11046;49.558;8.674;2023-12-04T11:07:02;0.40;97.20
21770;DHT22;11046;49.558;8.674;2023-12-04T11:10:05;0.50;97.20
21770;DHT22;11046;49.558;8.674;2023-12-04T11:13:15;0.50;97.20
21770;DHT22;11046;49.558;8.674;2023-12-04T11:16:27;0.60;97.10
21770;DHT22;11046;49.558;8.674;2023-12-04T11:19:57;0.60;97.10
21770;DHT22;11046;49.558;8.674;2023-12-04T11:23:02;0.50;97.00
21770;DHT22;11046;49.558;8.674;2023-12-04T11:26:04;0.40;97.10
21770;DHT22;11046;49.558;8.674;2023-12-04T11:29:05;0.30;97.10
21770;DHT22;11046;49.558;8.674;2023-12-04T11:32:07;0.20;97.40
21770;DHT22;11046;49.558;8.674;2023-12-04T11:35:13;0.10;97.60
21770;DHT22;11046;49.558;8.674;2023-12-04T11:38:14;-0.10;97.80
21770;DHT22;11046;49.558;8.674;2023-12-04T11:41:20;-0.10;98.20
21770;DHT22;11046;49.558;8.674;2023-12-04T11:44:21;-0.20;98.40
21770;DHT22;11046;49.558;8.674;2023-12-04T11:47:23;-0.10;98.50
21770;DHT22;11046;49.558;8.674;2023-12-04T11:50:26;0.00;98.60
21770;DHT22;11046;49.558;8.674;2023-12-04T11:53:27;0.00;98.60
21770;DHT22;11046;49.558;8.674;2023-12-04T11:56:28;0.00;98.70
21770;DHT22;11046;49.558;8.674;2023-12-04T11:59:28;-0.10;99.00
21770;DHT22;11046;49.558;8.674;2023-12-04T12:02:30;-0.20;99.10
21770;DHT22;11046;49.558;8.674;2023-12-04T12:05:32;-0.20;99.30
21770;DHT22;11046;49.558;8.674;2023-12-04T12:08:34;-0.20;99.30
21770;DHT22;11046;49.558;8.674;2023-12-04T12:11:34;-0.10;99.40
21770;DHT22;11046;49.558;8.674;2023-12-04T12:14:35;-0.10;99.50
21770;DHT22;11046;49.558;8.674;2023-12-04T12:17:37;-0.10;99.60
21770;DHT22;11046;49.558;8.674;2023-12-04T12:20:39;-0.10;99.90
21770;DHT22;11046;49.558;8.674;2023-12-04T12:23:40;0.00;99.90
21770;DHT22;11046;49.558;8.674;2023-12-04T12:26:41;0.10;99.90
21770;DHT22;11046;49.558;8.674;2023-12-04T12:29:42;0.10;99.90
21770;DHT22;11046;49.558;8.674;2023-12-04T12:32:43;0.10;99.90
21770;DHT22;11046;49.558;8.674;2023-12-04T12:35:44;0.20;99.90
21770;DHT22;11046;49.558;8.674;2023-12-04T12:38:45;0.20;99.90
21770;DHT22;11046;49.558;8.674;2023-12-04T12:41:50;0.20;99.90
21770;DHT22;11046;49.558;8.674;2023-12-04T12:44:51;0.30;99.90
21770;DHT22;11046;49.558;8.674;2023-12-04T12:47:51;0.30;99.90
21770;DHT22;11046;49.558;8.674;2023-12-04T12:50:52;0.30;99.90
21770;DHT22;11046;49.558;8.674;2023-12-04T12:53:57;0.20;99.90
21770;DHT22;11046;49.558;8.674;2023-12-04T12:56:57;0.30;99.90
21770;DHT22;11046;49.558;8.674;2023-12-04T12:59:58;0.30;99.90
21770;DHT22;11046;49.558;8.674;2023-12-04T13:02:58;0.40;99.90
21770;DHT22;11046;49.558;8.674;2023-12-04T13:05:59;0.40;99.90
21770;DHT22;11046;49.558;8.674;2023-12-04T13:08:59;0.30;99.90
21770;DHT22;11046;49.558;8.674;2023-12-04T13:12:00;0.20;99.90
21770;DHT22;11046;49.558;8.674;2023-12-04T13:15:01;0.20;99.90
21770;DHT22;11046;49.558;8.674;2023-12-04T13:18:02;0.10;99.90
21770;DHT22;11046;49.558;8.674;2023-12-04T13:21:03;0.30;99.90
21770;DHT22;11046;49.558;8.674;2023-12-04T13:24:04;0.30;99.90
21770;DHT22;11046;49.558;8.674;2023-12-04T13:27:07;0.30;99.90
21770;DHT22;11046;49.558;8.674;2023-12-04T13:30:09;0.30;99.90
21770;DHT22;11046;49.558;8.674;2023-12-04T13:33:10;0.40;99.90
21770;DHT22;11046;49.558;8.674;2023-12-04T13:36:11;0.40;99.90
21770;DHT22;11046;49.558;8.674;2023-12-04T13:39:12;0.60;99.90
21770;DHT22;11046;49.558;8.674;2023-12-04T13:42:26;0.70;99.90
21770;DHT22;11046;49.558;8.674;2023-12-04T13:45:46;0.80;99.90
21770;DHT22;11046;49.558;8.674;2023-12-04T13:48:46;0.90;99.90
21770;DHT22;11046;49.558;8.674;2023-12-04T13:51:47;1.00;99.90
21770;DHT22;11046;49.558;8.674;2023-12-04T13:54:50;1.00;99.90
21770;DHT22;11046;49.558;8.674;2023-12-04T13:57:51;1.10;99.90
21770;DHT22;11046;49.558;8.674;2023-12-04T14:01:10;1.10;99.90
21770;DHT22;11046;49.558;8.674;2023-12-04T14:04:14;1.10;99.90
21770;DHT22;11046;49.558;8.674;2023-12-04T14:07:14;1.10;99.90
21770;DHT22;11046;49.558;8.674;2023-12-04T14:10:16;1.10;99.90
21770;DHT22;11046;49.558;8.674;2023-12-04T14:13:16;1.20;99.90
21770;DHT22;11046;49.558;8.674;2023-12-04T14:16:18;1.20;99.90
21770;DHT22;11046;49.558;8.674;2023-12-04T14:19:18;1.30;99.90
21770;DHT22;11046;49.558;8.674;2023-12-04T14:22:21;1.40;99.90
21770;DHT22;11046;49.558;8.674;2023-12-04T14:25:22;1.40;99.90
21770;DHT22;11046;49.558;8.674;2023-12-04T14:28:23;1.30;99.90
21770;DHT22;11046;49.558;8.674;2023-12-04T14:31:23;1.20;99.90
21770;DHT22;11046;49.558;8.674;2023-12-04T14:34:24;1.20;99.90
21770;DHT22;11046;49.558;8.674;2023-12-04T14:37:25;1.10;99.90
21770;DHT22;11046;49.558;8.674;2023-12-04T14:40:25;1.00;99.90
21770;DHT22;11046;49.558;8.674;2023-12-04T14:43:26;1.00;99.90
21770;DHT22;11046;49.558;8.674;2023-12-04T14:46:27;0.90;99.90
21770;DHT22;11046;49.558;8.674;2023-12-04T14:49:27;0.90;99.90
21770;DHT22;11046;49.558;8.674;2023-12-04T14:52:28;1.00;99.90
21770;DHT22;11046;49.558;8.674;2023-12-04T14:55:29;1.00;99.90
21770;DHT22;11046;49.558;8.674;2023-12-04T14:58:49;0.90;99.90
21770;DHT22;11046;49.558;8.674;2023-12-04T15:02:19;0.80;99.90
21770;DHT22;11046;49.558;8.674;2023-12-04T15:05:35;0.80;99.90
21770;DHT22;11046;49.558;8.674;2023-12-04T15:09:10;0.80;99.90
21770;DHT22;11046;49.558;8.674;2023-12-04T15:12:29;0.70;99.90
21770;DHT22;11046;49.558;8.674;2023-12-04T15:15:59;0.70;99.90
21770;DHT22;11046;49.558;8.674;2023-12-04T15:19:14;0.70;99.90
21770;DHT22;11046;49.558;8.674;2023-12-04T15:22:24;0.80;99.90
21770;DHT22;11046;49.558;8.674;2023-12-04T15:25:25;0.90;99.90
21770;DHT22;11046;49.558;8.674;2023-12-04T15:28:27;1.00;99.90
21770;DHT22;11046;49.558;8.674;2023-12-04T15:31:27;1.20;99.90
21770;DHT22;11046;49.558;8.674;2023-12-04T15:34:28;1.30;99.90
21770;DHT22;11046;49.558;8.674;2023-12-04T15:37:28;1.30;99.90
21770;DHT22;11046;49.558;8.674;2023-12-04T15:40:29;1.40;99.90
21770;DHT22;11046;49.558;8.674;2023-12-04T15:43:30;1.50;99.90
21770;DHT22;11046;49.558;8.674;2023-12-04T15:46:31;1.50;99.90
21770;DHT22;11046;49.558;8.674;2023-12-04T15:49:32;1.50;99.90
21770;DHT22;11046;49.558;8.674;2023-12-04T15:52:33;1.70;99.90
21770;DHT22;11046;49.558;8.674;2023-12-04T15:55:38;1.60;99.90
21770;DHT22;11046;49.558;8.674;2023-12-04T15:58:39;1.60;99.90
21770;DHT22;11046;49.558;8.674;2023-12-04T16:01:40;1.60;99.90
21770;DHT22;11046;49.558;8.674;2023-12-04T16:04:40;1.70;99.90
21770;DHT22;11046;49.558;8.674;2023-12-04T16:07:41;1.60;99.90
21770;DHT22;11046;49.558;8.674;2023-12-04T16:10:42;1.60;99.90
21770;DHT22;11046;49.558;8.674;2023-12-04T16:13:43;1.70;99.90
21770;DHT22;11046;49.558;8.674;2023-12-04T16:16:43;1.70;99.90
21770;DHT22;11046;49.558;8.674;2023-12-04T16:19:44;1.60;99.90
21770;DHT22;11046;49.558;8.674;2023-12-04T16:22:45;1.70;99.90
21770;DHT22;11046;49.558;8.674;2023-12-04T16:25:45;1.70;99.90
21770;DHT22;11046;49.558;8.674;2023-12-04T16:28:46;1.80;99.90
21770;DHT22;11046;49.558;8.674;2023-12-04T16:31:47;1.70;99.90
21770;DHT22;11046;49.558;8.674;2023-12-04T16:34:47;1.80;99.90
21770;DHT22;11046;49.558;8.674;2023-12-04T16:37:48;1.80;99.90
21770;DHT22;11046;49.558;8.674;2023-12-04T16:40:48;1.80;99.90
21770;DHT22;11046;49.558;8.674;2023-12-04T16:43:49;1.80;99.90
21770;DHT22;11046;49.558;8.674;2023-12-04T16:46:50;1.70;99.90
21770;DHT22;11046;49.558;8.674;2023-12-04T16:49:55;1.70;99.90
21770;DHT22;11046;49.558;8.674;2023-12-04T16:52:56;1.60;99.90
21770;DHT22;11046;49.558;8.674;2023-12-04T16:55:56;1.50;99.90
21770;DHT22;11046;49.558;8.674;2023-12-04T16:58:57;1.60;99.90
21770;DHT22;11046;49.558;8.674;2023-12-04T17:01:58;1.60;99.90
21770;DHT22;11046;49.558;8.674;2023-12-04T17:04:59;1.50;99.90
21770;DHT22;11046;49.558;8.674;2023-12-04T17:08:00;1.60;99.90
21770;DHT22;11046;49.558;8.674;2023-12-04T17:11:01;1.60;99.90
21770;DHT22;11046;49.558;8.674;2023-12-04T17:14:01;1.70;99.90
21770;DHT22;11046;49.558;8.674;2023-12-04T17:17:02;1.80;99.90
21770;DHT22;11046;49.558;8.674;2023-12-04T17:20:03;1.80;99.90
21770;DHT22;11046;49.558;8.674;2023-12-04T17:23:03;1.90;99.90
21770;DHT22;11046;49.558;8.674;2023-12-04T17:26:06;1.90;99.90
21770;DHT22;11046;49.558;8.674;2023-12-04T17:29:07;1.90;99.90
21770;DHT22;11046;49.558;8.674;2023-12-04T17:32:08;2.00;99.90
21770;DHT22;11046;49.558;8.674;2023-12-04T17:35:10;2.00;99.90
21770;DHT22;11046;49.558;8.674;2023-12-04T17:38:13;2.10;99.90
21770;DHT22;11046;49.558;8.674;2023-12-04T17:41:15;2.10;99.90
21770;DHT22;11046;49.558;8.674;2023-12-04T17:44:20;2.20;99.90
21770;DHT22;11046;49.558;8.674;2023-12-04T17:47:21;2.20;99.90
21770;DHT22;11046;49.558;8.674;2023-12-04T17:50:21;2.20;99.90
21770;DHT22;11046;49.558;8.674;2023-12-04T17:53:22;2.30;99.90
21770;DHT22;11046;49.558;8.674;2023-12-04T17:56:22;2.30;99.90
21770;DHT22;11046;49.558;8.674;2023-12-04T17:59:23;2.40;99.90
21770;DHT22;11046;49.558;8.674;2023-12-04T18:02:24;2.40;99.90
21770;DHT22;11046;49.558;8.674;2023-12-04T18:05:25;2.40;99.90
21770;DHT22;11046;49.558;8.674;2023-12-04T18:08:26;2.50;99.90
21770;DHT22;11046;49.558;8.674;2023-12-04T18:11:29;2.50;99.90
21770;DHT22;11046;49.558;8.674;2023-12-04T18:14:29;2.50;99.90
21770;DHT22;11046;49.558;8.674;2023-12-04T18:17:30;2.50;99.90
21770;DHT22;11046;49.558;8.674;2023-12-04T18:20:31;2.50;99.90
21770;DHT22;11046;49.558;8.674;2023-12-04T18:23:32;2.50;99.90
21770;DHT22;11046;49.558;8.674;2023-12-04T18:26:33;2.50;99.90
21770;DHT22;11046;49.558;8.674;2023-12-04T18:29:33;2.50;99.90
21770;DHT22;11046;49.558;8.674;2023-12-04T18:32:35;2.50;99.90
21770;DHT22;11046;49.558;8.674;2023-12-04T18:35:35;2.50;99.90
21770;DHT22;11046;49.558;8.674;2023-12-04T18:41:47;2.50;99.90
21770;DHT22;11046;49.558;8.674;2023-12-04T18:44:48;2.50;99.90
21770;DHT22;11046;49.558;8.674;2023-12-04T18:47:55;2.50;99.90
21770;DHT22;11046;49.558;8.674;2023-12-04T18:50:56;2.50;99.90
21770;DHT22;11046;49.558;8.674;2023-12-04T18:53:57;2.50;99.90
21770;DHT22;11046;49.558;8.674;2023-12-04T18:56:58;2.50;99.90
21770;DHT22;11046;49.558;8.674;2023-12-04T18:59:59;2.60;99.90
21770;DHT22;11046;49.558;8.674;2023-12-04T19:02:59;2.50;99.90
21770;DHT22;11046;49.558;8.674;2023-12-04T19:06:00;2.50;99.90
21770;DHT22;11046;49.558;8.674;2023-12-04T19:09:00;2.50;99.90
21770;DHT22;11046;49.558;8.674;2023-12-04T19:12:01;2.50;99.90
21770;DHT22;11046;49.558;8.674;2023-12-04T19:15:01;2.60;99.90
21770;DHT22;11046;49.558;8.674;2023-12-04T19:18:02;2.60;99.90